Time;durP1;ratioP1;P1;durP2;ratioP2;P2;SDS_P1;SDS_P2;PMS_P1;PMS_P2;Temp;Humidity;BMP_temperature;BMP_pressure;BME280_temperature;BME280_humidity;BME280_pressure;Samples;Min_cycle;Max_cycle;Signal;HPM_P1;HPM_P2
2022/07/17 00:01:02;;;;;;;1999.90;999.90;;;17.50;99.90;;;;;;4974680;28;20694;-66
2022/07/17 00:03:28;;;;;;;1999.90;999.90;;;17.40;99.90;;;;;;4974741;28;20189;-66
2022/07/17 00:05:53;;;;;;;1999.90;999.90;;;17.20;99.90;;;;;;4974654;28;20602;-65
2022/07/17 00:08:19;;;;;;;1999.90;999.90;;;17.00;99.90;;;;;;4974372;28;20349;-66
2022/07/17 00:10:44;;;;;;;1999.90;999.90;;;16.90;99.90;;;;;;4974603;28;20187;-66
2022/07/17 00:13:10;;;;;;;1999.90;999.90;;;16.80;99.90;;;;;;4974586;28;20177;-66
2022/07/17 00:15:36;;;;;;;1999.90;999.90;;;16.90;99.90;;;;;;4974379;28;20642;-66
2022/07/17 00:18:03;;;;;;;1999.90;999.90;;;16.80;99.90;;;;;;4974164;28;20802;-66
2022/07/17 00:20:29;;;;;;;1999.90;999.90;;;16.90;99.90;;;;;;4974622;28;20183;-66
2022/07/17 00:22:55;;;;;;;1999.90;999.90;;;17.00;99.90;;;;;;4973579;28;20442;-66
2022/07/17 00:25:21;;;;;;;1999.90;999.90;;;17.00;99.90;;;;;;4974373;28;20499;-66
2022/07/17 00:27:47;;;;;;;1999.90;999.90;;;17.10;99.90;;;;;;4974028;28;20838;-66
2022/07/17 00:30:13;;;;;;;1999.90;999.90;;;17.10;99.90;;;;;;4974213;28;20441;-65
2022/07/17 00:32:39;;;;;;;1999.90;999.90;;;17.00;99.90;;;;;;4974286;28;20584;-65
2022/07/17 00:35:05;;;;;;;1999.90;999.90;;;17.10;99.90;;;;;;4974162;28;20428;-66
2022/07/17 00:37:37;;;;;;;1999.90;999.90;;;17.00;99.90;;;;;;4973721;28;21035;-66
2022/07/17 00:40:03;;;;;;;1999.90;999.90;;;17.00;99.90;;;;;;4974202;28;20441;-66
2022/07/17 00:42:29;;;;;;;1999.90;999.90;;;17.00;99.90;;;;;;4973947;28;20411;-66
2022/07/17 00:44:56;;;;;;;1999.90;999.90;;;16.90;99.90;;;;;;4973897;28;20417;-66
2022/07/17 00:47:22;;;;;;;1999.90;999.90;;;16.80;99.90;;;;;;4973456;28;20210;-66
2022/07/17 00:49:48;;;;;;;1999.90;999.90;;;16.70;99.90;;;;;;4973938;28;20416;-66
2022/07/17 00:52:15;;;;;;;1999.90;999.90;;;16.60;99.90;;;;;;4973842;28;20414;-66
2022/07/17 00:54:42;;;;;;;1999.90;999.90;;;16.60;99.90;;;;;;4973836;28;20784;-65
2022/07/17 00:57:10;;;;;;;1999.90;999.90;;;16.60;99.90;;;;;;4973385;28;20443;-66
2022/07/17 00:59:37;;;;;;;1999.90;999.90;;;16.50;99.90;;;;;;4973831;28;20425;-66
2022/07/17 01:02:05;;;;;;;1999.90;999.90;;;16.40;99.90;;;;;;4973677;28;20417;-66
2022/07/17 01:04:31;;;;;;;1999.90;999.90;;;16.30;99.90;;;;;;4973637;28;20467;-66
2022/07/17 01:06:59;;;;;;;1999.90;999.90;;;16.30;99.90;;;;;;4973113;28;20852;-66
2022/07/17 01:09:25;;;;;;;1999.90;999.90;;;16.20;99.90;;;;;;4973563;28;20422;-66
2022/07/17 01:11:51;;;;;;;1999.90;999.90;;;16.10;99.90;;;;;;4973512;28;20436;-66
2022/07/17 01:14:17;;;;;;;1999.90;999.90;;;16.20;99.90;;;;;;4973456;28;20413;-66
2022/07/17 01:16:43;;;;;;;1999.90;999.90;;;16.20;99.90;;;;;;4973134;28;20426;-66
2022/07/17 01:19:10;;;;;;;1999.90;999.90;;;16.20;99.90;;;;;;4973458;28;20419;-66
2022/07/17 01:21:45;;;;;;;1999.90;999.90;;;16.20;99.90;;;;;;4973429;28;20441;-66
2022/07/17 01:24:11;;;;;;;1999.90;999.90;;;16.20;99.90;;;;;;4973359;28;20926;-66
2022/07/17 01:26:40;;;;;;;1999.90;999.90;;;16.10;99.90;;;;;;4972948;28;20457;-66
2022/07/17 01:29:06;;;;;;;1999.90;999.90;;;16.00;99.90;;;;;;4973232;28;20933;-66
2022/07/17 01:31:31;;;;;;;1999.90;999.90;;;16.00;99.90;;;;;;4973204;28;20413;-65
2022/07/17 01:34:00;;;;;;;1999.90;999.90;;;15.90;99.90;;;;;;4973155;28;20175;-66
2022/07/17 01:36:25;;;;;;;1999.90;999.90;;;15.90;99.90;;;;;;4972878;28;21078;-66
2022/07/17 01:38:51;;;;;;;1999.90;999.90;;;16.00;99.90;;;;;;4973173;28;20419;-66
2022/07/17 01:41:17;;;;;;;1999.90;999.90;;;16.00;99.90;;;;;;4973269;28;20642;-66
2022/07/17 01:43:43;;;;;;;1999.90;999.90;;;16.00;99.90;;;;;;4973315;28;20451;-66
2022/07/17 01:46:08;;;;;;;1999.90;999.90;;;16.00;99.90;;;;;;4972907;28;20714;-66
2022/07/17 01:48:34;;;;;;;1999.90;999.90;;;16.00;99.90;;;;;;4973172;28;20208;-66
2022/07/17 01:51:00;;;;;;;1999.90;999.90;;;16.00;99.90;;;;;;4973150;28;20561;-66
2022/07/17 01:53:26;;;;;;;1999.90;999.90;;;16.00;99.90;;;;;;4973260;28;20214;-66
2022/07/17 01:55:51;;;;;;;1999.90;999.90;;;16.00;99.90;;;;;;4973019;28;20185;-66
2022/07/17 01:58:17;;;;;;;1999.90;999.90;;;15.90;99.90;;;;;;4972814;28;20269;-66
2022/07/17 02:00:43;;;;;;;1999.90;999.90;;;15.90;99.90;;;;;;4973150;28;20178;-66
2022/07/17 02:03:09;;;;;;;1999.90;999.90;;;15.90;99.90;;;;;;4973001;28;20548;-66
2022/07/17 02:05:35;;;;;;;1999.90;999.90;;;15.90;99.90;;;;;;4972946;28;20447;-66
2022/07/17 02:08:00;;;;;;;1999.90;999.90;;;15.90;99.90;;;;;;4972506;28;20211;-66
2022/07/17 02:10:27;;;;;;;1999.90;999.90;;;15.80;99.90;;;;;;4972908;28;20186;-66
2022/07/17 02:12:53;;;;;;;1999.90;999.90;;;15.80;99.90;;;;;;4972914;28;20633;-65
2022/07/17 02:15:18;;;;;;;1999.90;999.90;;;15.70;99.90;;;;;;4972934;28;20418;-66
2022/07/17 02:17:44;;;;;;;1999.90;999.90;;;15.70;99.90;;;;;;4972535;28;20198;-66
2022/07/17 02:20:11;;;;;;;1999.90;999.90;;;15.70;99.90;;;;;;4972803;28;20256;-66
2022/07/17 02:22:38;;;;;;;1999.90;999.90;;;15.60;99.90;;;;;;4972858;28;20211;-65
2022/07/17 02:25:05;;;;;;;1999.90;999.90;;;15.60;99.90;;;;;;4972747;28;20401;-66
2022/07/17 02:27:33;;;;;;;1999.90;999.90;;;15.60;99.90;;;;;;4972257;28;20894;-65
2022/07/17 02:30:02;;;;;;;1999.90;999.90;;;15.60;99.90;;;;;;4973034;28;20415;-65
2022/07/17 02:32:28;;;;;;;1999.90;999.90;;;15.50;99.90;;;;;;4972739;28;20494;-66
2022/07/17 02:34:53;;;;;;;1999.90;999.90;;;15.50;99.90;;;;;;4972748;28;20448;-66
2022/07/17 02:37:19;;;;;;;1999.90;999.90;;;15.40;99.90;;;;;;4972336;28;20199;-66
2022/07/17 02:39:54;;;;;;;1999.90;999.90;;;15.40;99.90;;;;;;4972684;28;20309;-66
2022/07/17 02:42:25;;;;;;;1999.90;999.90;;;15.20;99.90;;;;;;4972673;28;20174;-65
2022/07/17 02:44:51;;;;;;;1999.90;999.90;;;15.10;99.90;;;;;;4972774;28;20417;-66
2022/07/17 02:47:25;;;;;;;1999.90;999.90;;;14.90;99.90;;;;;;4975448;28;20518;-66
2022/07/17 02:49:52;;;;;;;1999.90;999.90;;;14.80;99.90;;;;;;4976384;28;20832;-65
2022/07/17 02:52:18;;;;;;;1999.90;999.90;;;14.80;99.90;;;;;;4976069;28;20979;-65
2022/07/17 02:54:44;;;;;;;1999.90;999.90;;;14.80;99.90;;;;;;4976044;28;20445;-65
2022/07/17 02:57:10;;;;;;;1999.90;999.90;;;14.80;99.90;;;;;;4975657;28;20479;-66
2022/07/17 02:59:36;;;;;;;1999.90;999.90;;;14.90;99.90;;;;;;4975932;28;20870;-66
2022/07/17 03:02:02;;;;;;;1999.90;999.90;;;14.90;99.90;;;;;;4975886;28;20654;-66
2022/07/17 03:04:27;;;;;;;1999.90;999.90;;;14.90;99.90;;;;;;4975877;28;20487;-66
2022/07/17 03:06:53;;;;;;;1999.90;999.90;;;15.00;99.90;;;;;;5016621;23;20472;-71
2022/07/17 03:09:19;;;;;;;1999.90;999.90;;;14.80;99.90;;;;;;4992069;28;20216;-71
2022/07/17 03:11:44;;;;;;;1999.90;999.90;;;14.70;99.90;;;;;;4995203;28;20179;-71
2022/07/17 03:14:10;;;;;;;1999.90;999.90;;;14.60;99.90;;;;;;4995021;28;20182;-71
2022/07/17 03:16:36;;;;;;;1999.90;999.90;;;14.50;99.90;;;;;;4994826;28;20181;-71
2022/07/17 03:19:02;;;;;;;1999.90;999.90;;;14.40;99.90;;;;;;5248980;23;20232;-71
2022/07/17 03:21:27;;;;;;;1999.90;999.90;;;14.30;99.90;;;;;;4995531;28;20501;-71
2022/07/17 03:23:53;;;;;;;1999.90;999.90;;;14.30;99.90;;;;;;4994726;28;20165;-71
2022/07/17 03:26:18;;;;;;;1999.90;999.90;;;14.30;99.90;;;;;;4994945;28;20207;-71
2022/07/17 03:28:44;;;;;;;1999.90;999.90;;;14.30;99.90;;;;;;5025327;23;20304;-71
2022/07/17 03:31:09;;;;;;;1999.90;999.90;;;14.30;99.90;;;;;;4956153;29;20542;-71
2022/07/17 03:33:35;;;;;;;1999.90;999.90;;;14.30;99.90;;;;;;4956128;29;20175;-71
2022/07/17 03:36:01;;;;;;;1999.90;999.90;;;14.30;99.90;;;;;;4955587;29;20212;-71
2022/07/17 03:38:26;;;;;;;1999.90;999.90;;;14.30;99.90;;;;;;4955722;28;20195;-71
2022/07/17 03:40:52;;;;;;;1999.90;999.90;;;14.20;99.90;;;;;;4955882;28;20591;-70
2022/07/17 03:43:17;;;;;;;1999.90;999.90;;;14.20;99.90;;;;;;4954924;29;20645;-71
2022/07/17 03:45:43;;;;;;;1999.90;999.90;;;14.00;99.90;;;;;;4955345;28;20245;-71
2022/07/17 03:48:09;;;;;;;1999.90;999.90;;;14.00;99.90;;;;;;4955318;28;20205;-71
2022/07/17 03:50:35;;;;;;;1999.90;999.90;;;13.90;99.90;;;;;;4955838;28;20648;-71
2022/07/17 03:53:00;;;;;;;1999.90;999.90;;;14.00;99.90;;;;;;4954805;28;20398;-71
2022/07/17 03:55:26;;;;;;;1999.90;999.90;;;14.10;99.90;;;;;;4955275;28;20219;-71
2022/07/17 03:57:52;;;;;;;1999.90;999.90;;;14.00;99.90;;;;;;4954895;28;20195;-71
2022/07/17 04:00:18;;;;;;;1999.90;999.90;;;13.90;99.90;;;;;;4953699;29;20174;-71
2022/07/17 04:02:44;;;;;;;1999.90;999.90;;;14.00;99.90;;;;;;4955110;28;20567;-71
2022/07/17 04:05:11;;;;;;;1999.90;999.90;;;14.00;99.90;;;;;;4955120;28;20452;-71
2022/07/17 04:07:41;;;;;;;1999.90;999.90;;;14.10;99.90;;;;;;4954373;28;20288;-71
2022/07/17 04:10:08;;;;;;;1999.90;999.90;;;14.20;99.90;;;;;;4954650;28;20634;-72
2022/07/17 04:12:34;;;;;;;1999.90;999.90;;;14.20;99.90;;;;;;4955002;28;20402;-72
2022/07/17 04:15:00;;;;;;;1999.90;999.90;;;14.20;99.90;;;;;;4955104;28;20416;-71
2022/07/17 04:17:26;;;;;;;1999.90;999.90;;;14.30;99.90;;;;;;4954882;28;20481;-72
2022/07/17 04:19:52;;;;;;;1999.90;999.90;;;14.30;99.90;;;;;;4955154;28;20411;-71
2022/07/17 04:22:18;;;;;;;1999.90;999.90;;;14.40;99.90;;;;;;4955119;29;20833;-72
2022/07/17 04:24:44;;;;;;;1999.90;999.90;;;14.40;99.90;;;;;;4955054;28;20425;-72
2022/07/17 04:27:10;;;;;;;1999.90;999.90;;;14.40;99.90;;;;;;4954589;28;20210;-71
2022/07/17 04:29:35;;;;;;;1999.90;999.90;;;14.30;99.90;;;;;;4954935;28;20845;-72
2022/07/17 04:32:02;;;;;;;1999.90;999.90;;;14.30;99.90;;;;;;4954942;28;20211;-74
2022/07/17 04:34:27;;;;;;;1999.90;999.90;;;14.30;99.90;;;;;;4954904;28;20656;-73
2022/07/17 04:36:53;;;;;;;1999.90;999.90;;;14.30;99.90;;;;;;4954656;28;20496;-74
2022/07/17 04:39:19;;;;;;;1999.90;999.90;;;14.30;99.90;;;;;;4954983;28;20508;-74
2022/07/17 04:41:45;;;;;;;1999.90;999.90;;;14.40;99.90;;;;;;4954774;28;20875;-73
2022/07/17 04:44:10;;;;;;;1999.90;999.90;;;14.50;99.90;;;;;;4955006;28;20647;-73
2022/07/17 04:46:36;;;;;;;1999.90;999.90;;;14.50;99.90;;;;;;4954369;28;20670;-74
2022/07/17 04:49:02;;;;;;;1999.90;999.90;;;14.50;99.90;;;;;;4954602;28;20285;-73
2022/07/17 04:51:27;;;;;;;1999.90;999.90;;;14.50;99.90;;;;;;4954824;28;20655;-74
2022/07/17 04:53:53;;;;;;;1999.90;999.90;;;14.50;99.90;;;;;;4954583;28;20263;-71
2022/07/17 04:56:18;;;;;;;1999.90;999.90;;;14.70;99.90;;;;;;4954521;28;20182;-72
2022/07/17 04:58:44;;;;;;;1999.90;999.90;;;14.70;99.90;;;;;;4954444;28;20203;-72
2022/07/17 05:01:10;;;;;;;1999.90;999.90;;;14.70;99.90;;;;;;4954399;28;20176;-72
2022/07/17 05:03:37;;;;;;;1999.90;999.90;;;14.80;99.90;;;;;;4954483;28;20177;-71
2022/07/17 05:06:03;;;;;;;1999.90;999.90;;;14.90;99.90;;;;;;4954054;28;20204;-72
2022/07/17 05:08:28;;;;;;;1999.90;999.90;;;14.90;99.90;;;;;;4953739;28;20428;-72
2022/07/17 05:10:54;;;;;;;1999.90;999.90;;;15.00;99.90;;;;;;4954280;28;20179;-72
2022/07/17 05:13:20;;;;;;;1999.90;999.90;;;15.00;99.90;;;;;;4954299;28;20542;-71
2022/07/17 05:15:45;;;;;;;1999.90;999.90;;;15.10;99.90;;;;;;4954240;28;20174;-72
2022/07/17 05:18:11;;;;;;;1999.90;999.90;;;15.20;99.90;;;;;;4953883;28;20277;-72
2022/07/17 05:20:39;;;;;;;1999.90;999.90;;;15.20;99.90;;;;;;4954202;28;20174;-72
2022/07/17 05:23:04;;;;;;;1999.90;999.90;;;15.30;99.90;;;;;;4954099;28;20423;-72
2022/07/17 05:25:31;;;;;;;1999.90;999.90;;;15.30;99.90;;;;;;4954216;28;20411;-72
2022/07/17 05:27:56;;;;;;;1999.90;999.90;;;15.40;99.90;;;;;;4953841;28;20294;-72
2022/07/17 05:30:22;;;;;;;1999.90;999.90;;;15.40;99.90;;;;;;4954181;28;20406;-72
2022/07/17 05:32:47;;;;;;;1999.90;999.90;;;15.40;99.90;;;;;;4954304;28;20225;-72
2022/07/17 05:35:13;;;;;;;1999.90;999.90;;;15.50;99.90;;;;;;4954133;28;20171;-71
2022/07/17 05:37:38;;;;;;;1999.90;999.90;;;15.60;99.90;;;;;;4953634;28;20198;-72
2022/07/17 05:40:05;;;;;;;1999.90;999.90;;;15.70;99.90;;;;;;4954321;28;20660;-71
2022/07/17 05:42:30;;;;;;;1999.90;999.90;;;15.80;99.90;;;;;;4953902;28;20172;-72
2022/07/17 05:44:56;;;;;;;1999.90;999.90;;;15.90;99.90;;;;;;4954115;28;20412;-72
2022/07/17 05:47:22;;;;;;;1999.90;999.90;;;16.00;99.90;;;;;;4953517;28;20204;-72
2022/07/17 05:49:47;;;;;;;1999.90;999.90;;;16.00;99.90;;;;;;4954109;28;20182;-72
2022/07/17 05:52:13;;;;;;;1999.90;999.90;;;16.10;99.90;;;;;;4953902;28;20178;-72
2022/07/17 05:54:38;;;;;;;1999.90;999.90;;;16.20;99.90;;;;;;4953957;28;20166;-72
2022/07/17 05:57:04;;;;;;;1999.90;999.90;;;16.30;99.90;;;;;;4953556;28;20194;-72
2022/07/17 05:59:29;;;;;;;1999.90;999.90;;;16.30;99.90;;;;;;4953835;28;20182;-72
2022/07/17 06:01:55;;;;;;;1999.90;999.90;;;16.40;99.90;;;;;;4953850;28;20182;-72
2022/07/17 06:04:21;;;;;;;1999.90;999.90;;;16.50;99.90;;;;;;4953902;28;20177;-72
2022/07/17 06:06:46;;;;;;;1999.90;999.90;;;16.60;99.90;;;;;;4953381;28;20202;-72
2022/07/17 06:09:12;;;;;;;1999.90;999.90;;;16.60;99.90;;;;;;4953768;28;20628;-72
2022/07/17 06:11:38;;;;;;;1999.90;999.90;;;16.70;99.90;;;;;;4953717;28;20174;-72
2022/07/17 06:14:04;;;;;;;1999.90;999.90;;;16.90;99.90;;;;;;4953679;28;20451;-72
2022/07/17 06:16:29;;;;;;;1999.90;999.90;;;17.00;99.90;;;;;;4953375;28;20259;-72
2022/07/17 06:18:55;;;;;;;1999.90;999.90;;;17.10;99.90;;;;;;4953811;28;20196;-72
2022/07/17 06:21:20;;;;;;;1999.90;999.90;;;17.20;99.90;;;;;;4955586;28;20176;-72
2022/07/17 06:23:46;;;;;;;1999.90;999.90;;;17.30;99.90;;;;;;4957272;28;20634;-72
2022/07/17 06:26:12;;;;;;;1999.90;999.90;;;17.40;99.90;;;;;;4956864;28;20285;-72
2022/07/17 06:28:37;;;;;;;1999.90;999.90;;;17.50;99.90;;;;;;4957010;28;20256;-72
2022/07/17 06:31:03;;;;;;;1999.90;999.90;;;17.60;99.90;;;;;;4957186;28;20171;-72
2022/07/17 06:33:28;;;;;;;1999.90;999.90;;;17.60;99.90;;;;;;4957117;28;20168;-72
2022/07/17 06:35:54;;;;;;;1999.90;999.90;;;17.70;99.90;;;;;;4957035;28;20186;-72
2022/07/17 06:38:20;;;;;;;1999.90;999.90;;;17.80;99.90;;;;;;4956798;28;20704;-72
2022/07/17 06:40:45;;;;;;;1999.90;999.90;;;17.90;99.90;;;;;;4957013;28;20182;-72
2022/07/17 06:43:11;;;;;;;1999.90;999.90;;;17.90;99.90;;;;;;4956955;28;20181;-72
2022/07/17 06:45:36;;;;;;;1999.90;999.90;;;18.00;99.90;;;;;;4956934;28;20185;-71
2022/07/17 06:48:02;;;;;;;1999.90;999.90;;;18.10;99.90;;;;;;4956700;28;20197;-72
2022/07/17 06:50:28;;;;;;;1999.90;999.90;;;18.20;99.90;;;;;;4956942;28;20174;-72
2022/07/17 06:52:54;;;;;;;1999.90;999.90;;;18.20;99.90;;;;;;4957100;28;20623;-71
2022/07/17 06:55:19;;;;;;;1999.90;999.90;;;18.40;99.90;;;;;;4956853;28;20249;-72
2022/07/17 06:57:45;;;;;;;1999.90;999.90;;;18.40;99.90;;;;;;4956538;28;20198;-72
2022/07/17 07:00:11;;;;;;;1999.90;999.90;;;18.60;99.90;;;;;;4956922;28;20224;-72
2022/07/17 07:02:37;;;;;;;1999.90;999.90;;;18.60;99.90;;;;;;4956868;28;20813;-72
2022/07/17 07:05:04;;;;;;;1999.90;999.90;;;18.60;99.90;;;;;;4956741;28;20444;-72
2022/07/17 07:07:30;;;;;;;1999.90;999.90;;;18.70;99.90;;;;;;4956425;28;20459;-72
2022/07/17 07:09:55;;;;;;;1999.90;999.90;;;18.80;99.90;;;;;;4956784;28;20436;-72
2022/07/17 07:12:21;;;;;;;1999.90;999.90;;;18.90;99.90;;;;;;4956687;28;20225;-72
2022/07/17 07:14:46;;;;;;;1999.90;999.90;;;19.00;99.90;;;;;;4956688;28;20177;-72
2022/07/17 07:17:12;;;;;;;1999.90;999.90;;;19.10;99.90;;;;;;4956396;28;20566;-71
2022/07/17 07:19:38;;;;;;;1999.90;999.90;;;19.20;99.90;;;;;;4956573;28;20178;-72
2022/07/17 07:22:03;;;;;;;1999.90;999.90;;;19.20;99.90;;;;;;4956953;28;20177;-72
2022/07/17 07:24:29;;;;;;;1999.90;999.90;;;19.30;99.90;;;;;;4956883;28;20170;-71
2022/07/17 07:26:55;;;;;;;1999.90;999.90;;;19.30;99.90;;;;;;4956332;28;20199;-72
2022/07/17 07:29:20;;;;;;;1999.90;999.90;;;19.30;99.90;;;;;;4956876;28;20185;-72
2022/07/17 07:31:47;;;;;;;1999.90;999.90;;;19.40;99.90;;;;;;4956245;28;20523;-72
2022/07/17 07:34:13;;;;;;;1999.90;999.90;;;19.40;99.90;;;;;;4956458;28;20179;-72
2022/07/17 07:36:39;;;;;;;1999.90;999.90;;;19.50;99.90;;;;;;4956272;28;20407;-72
2022/07/17 07:39:04;;;;;;;1999.90;999.90;;;19.50;99.90;;;;;;4999073;23;20488;-72
2022/07/17 07:41:30;;;;;;;1999.90;999.90;;;19.60;99.90;;;;;;4994600;28;20533;-72
2022/07/17 07:44:01;;;;;;;1999.90;999.90;;;19.80;99.90;;;;;;4994744;28;20162;-72
2022/07/17 07:46:27;;;;;;;1999.90;999.90;;;19.90;99.90;;;;;;4994174;28;20598;-72
2022/07/17 07:48:53;;;;;;;1999.90;999.90;;;20.00;99.90;;;;;;4994401;28;20491;-72
2022/07/17 07:51:18;;;;;;;1999.90;999.90;;;20.10;99.90;;;;;;4994465;28;20301;-72
2022/07/17 07:53:44;;;;;;;1999.90;999.90;;;20.20;99.90;;;;;;4994350;28;20173;-71
2022/07/17 07:56:09;;;;;;;1999.90;999.90;;;20.30;99.90;;;;;;4994346;28;20622;-72
2022/07/17 07:58:35;;;;;;;1999.90;999.90;;;20.40;99.90;;;;;;4994252;28;20245;-71
2022/07/17 08:01:01;;;;;;;1999.90;999.90;;;20.60;99.90;;;;;;4994403;28;20176;-72
2022/07/17 08:03:26;;;;;;;1999.90;999.90;;;20.60;99.90;;;;;;4994201;28;20171;-72
2022/07/17 08:05:52;;;;;;;1999.90;999.90;;;20.70;99.90;;;;;;4994082;28;20203;-72
2022/07/17 08:08:17;;;;;;;1999.90;999.90;;;20.80;99.90;;;;;;5103848;23;20224;-71
2022/07/17 08:10:43;;;;;;;1999.90;999.90;;;20.90;99.90;;;;;;4974678;28;20210;-71
2022/07/17 08:13:09;;;;;;;1999.90;999.90;;;20.90;99.90;;;;;;4974618;28;20164;-71
2022/07/17 08:15:36;;;;;;;1999.90;999.90;;;20.80;99.90;;;;;;4974584;28;20658;-71
2022/07/17 08:18:02;;;;;;;1999.90;999.90;;;20.90;99.90;;;;;;4973958;28;20414;-71
2022/07/17 08:20:27;;;;;;;1999.90;999.90;;;20.80;99.90;;;;;;4974510;28;20402;-71
2022/07/17 08:22:53;;;;;;;1999.90;999.90;;;21.00;99.90;;;;;;4974673;28;20179;-71
2022/07/17 08:25:19;;;;;;;1999.90;999.90;;;21.10;99.90;;;;;;4974657;28;20174;-71
2022/07/17 08:27:44;;;;;;;1999.90;999.90;;;21.30;99.90;;;;;;4995689;23;20859;-71
2022/07/17 08:30:12;;;;;;;1999.90;999.90;;;21.30;99.90;;;;;;4994104;28;20263;-71
2022/07/17 08:32:38;;;;;;;1999.90;999.90;;;21.40;99.90;;;;;;4994151;28;20183;-71
2022/07/17 08:35:05;;;;;;;1999.90;999.90;;;21.30;99.90;;;;;;4994105;28;20893;-71
2022/07/17 08:37:41;;;;;;;1999.90;999.90;;;21.20;99.90;;;;;;4993584;28;20422;-71
2022/07/17 08:40:07;;;;;;;1999.90;999.90;;;21.20;99.90;;;;;;4993716;28;20925;-71
2022/07/17 08:42:32;;;;;;;1999.90;999.90;;;21.10;99.90;;;;;;4993302;28;20396;-71
2022/07/17 08:44:58;;;;;;;1999.90;999.90;;;21.20;99.90;;;;;;4993326;28;20387;-71
2022/07/17 08:47:24;;;;;;;1999.90;999.90;;;21.40;99.90;;;;;;4993183;28;20216;-71
2022/07/17 08:49:50;;;;;;;1999.90;999.90;;;21.40;99.90;;;;;;4993638;28;20167;-71
2022/07/17 08:52:15;;;;;;;1999.90;999.90;;;21.60;99.90;;;;;;4993391;28;20833;-71
2022/07/17 08:54:41;;;;;;;1999.90;999.90;;;21.80;99.90;;;;;;4993478;28;20581;-71
2022/07/17 08:57:09;;;;;;;1999.90;999.90;;;21.80;99.90;;;;;;4993272;28;20199;-71
2022/07/17 08:59:35;;;;;;;1999.90;999.90;;;21.80;99.90;;;;;;4991504;28;20410;-71
2022/07/17 09:02:03;;;;;;;1999.90;999.90;;;22.00;99.90;;;;;;4992867;28;20496;-71
2022/07/17 09:04:28;;;;;;;1999.90;999.90;;;22.30;98.40;;;;;;4991914;28;20970;-71
2022/07/17 09:09:30;;;;;;;1999.90;999.90;;;22.70;94.20;;;;;;4990694;23;20225;-71
2022/07/17 09:12:02;;;;;;;1999.90;999.90;;;22.80;94.40;;;;;;4973713;28;20420;-71
2022/07/17 09:14:41;;;;;;;1999.90;999.90;;;22.90;92.10;;;;;;4973334;28;20402;-71
2022/07/17 09:19:47;;;;;;;1999.90;999.90;;;23.00;82.40;;;;;;5133892;23;20490;-71
2022/07/17 09:22:17;;;;;;;1999.90;999.90;;;23.20;75.10;;;;;;4993442;28;20404;-73
2022/07/17 09:24:48;;;;;;;1999.90;999.90;;;23.20;69.90;;;;;;4975583;28;20388;-72
2022/07/17 09:27:18;;;;;;;1999.90;999.90;;;23.20;65.60;;;;;;4975646;28;20472;-73
2022/07/17 09:29:54;;;;;;;1999.90;999.90;;;23.20;64.00;;;;;;4975410;28;20407;-73
2022/07/17 09:32:21;;;;;;;1999.90;999.90;;;23.20;59.60;;;;;;4975785;28;20950;-71
2022/07/17 09:34:51;;;;;;;1999.90;999.90;;;23.20;57.10;;;;;;4973477;28;20384;-70
2022/07/17 09:37:17;;;;;;;1999.90;999.90;;;23.20;58.10;;;;;;5003689;23;20456;-70
2022/07/17 09:39:43;;;;;;;1999.90;999.90;;;23.30;57.70;;;;;;4972751;28;20381;-73
2022/07/17 09:42:20;;;;;;;1999.90;999.90;;;23.30;59.10;;;;;;4973286;28;20427;-72
2022/07/17 09:44:55;;;;;;;1999.90;999.90;;;23.40;58.50;;;;;;4971900;28;20169;-71
2022/07/17 09:47:23;;;;;;;1999.90;999.90;;;23.40;59.00;;;;;;4972205;28;20544;-71
2022/07/17 09:49:58;;;;;;;1999.90;999.90;;;23.50;55.20;;;;;;4972814;28;20429;-70
2022/07/17 09:52:26;;;;;;;1999.90;999.90;;;23.60;57.50;;;;;;4972001;28;20376;-70
2022/07/17 09:54:54;;;;;;;1999.90;999.90;;;23.80;53.90;;;;;;4973855;28;20516;-71
2022/07/17 09:57:24;;;;;;;1999.90;999.90;;;23.90;54.00;;;;;;4987113;23;20574;-71
2022/07/17 09:59:50;;;;;;;1999.90;999.90;;;24.10;58.80;;;;;;4995554;28;20466;-70
2022/07/17 10:02:19;;;;;;;1999.90;999.90;;;24.40;51.70;;;;;;4995781;28;20713;-70
2022/07/17 10:04:46;;;;;;;1999.90;999.90;;;24.50;49.60;;;;;;4995818;28;20763;-68
2022/07/17 10:07:11;;;;;;;1999.90;999.90;;;24.50;49.40;;;;;;4994779;28;20459;-72
2022/07/17 10:09:38;;;;;;;1999.90;999.90;;;24.50;48.40;;;;;;4995657;28;20461;-72
2022/07/17 10:12:05;;;;;;;1999.90;999.90;;;24.60;48.30;;;;;;4995494;28;20940;-72
2022/07/17 10:14:32;;;;;;;1999.90;999.90;;;24.60;48.20;;;;;;4995101;28;20371;-72
2022/07/17 10:17:07;;;;;;;1999.90;999.90;;;24.80;47.60;;;;;;4995037;28;20380;-72
2022/07/17 10:19:32;;;;;;;1999.90;999.90;;;25.20;46.90;;;;;;4995503;28;20760;-72
2022/07/17 10:22:04;;;;;;;1999.90;999.90;;;25.40;42.50;;;;;;4994934;28;20450;-72
2022/07/17 10:24:30;;;;;;;1999.90;999.90;;;25.60;41.70;;;;;;4995348;28;20178;-73
2022/07/17 10:26:56;;;;;;;1999.90;999.90;;;25.70;41.40;;;;;;4994844;28;20422;-72
2022/07/17 10:29:38;;;;;;;1999.90;999.90;;;25.90;41.20;;;;;;4994755;28;20384;-72
2022/07/17 10:32:24;;;;;;;1999.90;999.90;;;26.10;39.00;;;;;;4995217;28;20414;-72
2022/07/17 10:35:10;;;;;;;1999.90;999.90;;;26.30;36.30;;;;;;4995045;28;20432;-73
2022/07/17 10:37:35;;;;;;;1999.90;999.90;;;26.00;34.70;;;;;;4994516;28;20462;-72
2022/07/17 10:40:04;;;;;;;1999.90;999.90;;;25.70;35.90;;;;;;4995235;28;20408;-73
2022/07/17 10:42:56;;;;;;;1999.90;999.90;;;25.80;33.80;;;;;;4995190;28;20583;-72
2022/07/17 10:45:38;;;;;;;1999.90;999.90;;;25.90;33.70;;;;;;4994871;28;20497;-72
2022/07/17 10:48:08;;;;;;;1999.90;999.90;;;26.20;31.60;;;;;;4994717;28;20785;-73
2022/07/17 10:50:40;;;;;;;1999.90;999.90;;;26.30;30.80;;;;;;4994769;28;20432;-72
2022/07/17 10:53:07;;;;;;;1999.90;999.90;;;26.30;30.10;;;;;;4994964;28;20765;-72
2022/07/17 10:55:34;;;;;;;1999.90;999.90;;;26.40;29.70;;;;;;4994802;28;20407;-72
2022/07/17 11:00:35;;;;;;;1999.90;999.90;;;26.80;28.20;;;;;;4912134;23;20479;-72
2022/07/17 11:03:11;;;;;;;1999.90;999.90;;;26.80;28.50;;;;;;4994735;28;21016;-72
2022/07/17 11:05:38;;;;;;;1999.90;999.90;;;26.90;27.90;;;;;;4994085;28;20174;-73
2022/07/17 11:08:09;;;;;;;1999.90;999.90;;;27.00;27.80;;;;;;4993381;28;20460;-73
2022/07/17 11:10:36;;;;;;;1999.90;999.90;;;26.80;27.40;;;;;;4994863;28;20467;-72
2022/07/17 11:13:12;;;;;;;1999.90;999.90;;;26.70;27.90;;;;;;4994189;28;20445;-72
2022/07/17 11:15:43;;;;;;;1999.90;999.90;;;27.00;27.10;;;;;;4994584;28;20401;-72
2022/07/17 11:23:52;;;;;;;1999.90;999.90;;;27.50;25.90;;;;;;4984039;23;20485;-73
2022/07/17 11:26:20;;;;;;;1999.90;999.90;;;27.60;24.30;;;;;;4974440;28;20499;-73
2022/07/17 11:32:18;;;;;;;1999.90;999.90;;;27.80;21.70;;;;;;4991537;28;20407;-72
2022/07/17 11:34:44;;;;;;;1999.90;999.90;;;27.80;20.50;;;;;;4992181;28;20456;-72
2022/07/17 11:37:09;;;;;;;1999.90;999.90;;;27.60;20.00;;;;;;4993436;28;20426;-72
2022/07/17 11:39:47;;;;;;;1999.90;999.90;;;27.60;21.00;;;;;;4994192;28;20265;-72
2022/07/17 11:42:20;;;;;;;1999.90;999.90;;;27.50;21.20;;;;;;4994243;28;20183;-72
2022/07/17 11:44:50;;;;;;;1999.90;999.90;;;27.50;20.90;;;;;;4993868;28;20405;-72
2022/07/17 12:18:01;;;;;;;1999.90;999.90;;;31.10;14.80;;;;;;1350025;26;20668;-73
2022/07/17 12:24:05;;;;;;;1999.90;999.90;;;30.80;12.70;;;;;;4988560;28;20787;-72
2022/07/17 12:26:32;;;;;;;1999.90;999.90;;;31.10;12.20;;;;;;4993092;28;20539;-73
2022/07/17 12:28:59;;;;;;;1999.90;999.90;;;31.30;11.90;;;;;;4992702;28;20425;-72
2022/07/17 12:31:25;;;;;;;1999.90;999.90;;;31.70;11.70;;;;;;4993174;28;20405;-73
2022/07/17 12:33:53;;;;;;;1999.90;999.90;;;32.40;12.60;;;;;;4993080;28;20413;-73
2022/07/17 12:36:19;;;;;;;1999.90;999.90;;;32.90;11.00;;;;;;4992301;28;20491;-72
2022/07/17 12:38:45;;;;;;;1999.90;999.90;;;33.20;9.30;;;;;;4993047;28;20428;-73
2022/07/17 12:41:11;;;;;;;1999.90;999.90;;;33.90;8.80;;;;;;4992931;28;20495;-72
2022/07/17 12:43:37;;;;;;;1999.90;999.90;;;34.60;8.10;;;;;;4992603;28;20261;-73
2022/07/17 12:46:03;;;;;;;1999.90;999.90;;;35.20;7.00;;;;;;4992627;28;20527;-72
2022/07/17 12:48:28;;;;;;;1999.90;999.90;;;35.60;6.30;;;;;;4992439;28;20189;-72